METAR Data
IDs: Format: Raw Decoded Include TAF

Data at: 1032 UTC 18 Jan 2022

K08D 181015Z AUTO 29020G26KT 10SM FEW070 OVC100 02/01 A2937 RMK AO2
K08D 180955Z AUTO 28020KT 10SM OVC100 02/01 A2937 RMK AO2
K08D 180935Z AUTO 28019KT 10SM FEW075 FEW085 BKN110 01/00 A2936 RMK AO2
K08D 180915Z AUTO 28018KT 10SM FEW033 SCT075 BKN100 00/M00 A2936 RMK AO2
K08D 180855Z AUTO 27016KT 10SM FEW037 BKN045 BKN110 M00/M00 A2935 RMK AO2
K08D 180835Z AUTO 27016KT 10SM FEW036 SCT045 BKN120 00/M00 A2935 RMK AO2
K08D 180815Z AUTO 28016KT 10SM FEW037 SCT090 BKN110 00/M00 A2935 RMK AO2
K08D 180755Z AUTO 26016KT 10SM BKN095 OVC110 00/00 A2935 RMK AO2
K08D 180735Z AUTO 26013KT 10SM OVC095 M00/00 A2937 RMK AO2
K08D 180715Z AUTO 27010KT 10SM OVC095 M02/M02 A2937 RMK AO2
K08D 180655Z AUTO 26005KT 10SM OVC100 M04/M04 A2939 RMK AO2
K08D 180635Z AUTO 24004KT 10SM OVC095 M05/M05 A2939 RMK AO2
K08D 180615Z AUTO 23004KT 6SM BR BKN100 M07/M07 A2940 RMK AO2
K08D 180555Z AUTO 00000KT 10SM SCT100 M07/M07 A2941 RMK AO2
K08D 180535Z AUTO 00000KT 5SM BR CLR M07/M07 A2941 RMK AO2
K08D 180515Z AUTO 20003KT 10SM CLR M07/M06 A2942 RMK AO2
K08D 180455Z AUTO 00000KT 10SM CLR M07/M07 A2944 RMK AO2
K08D 180435Z AUTO 17004KT 10SM CLR M06/M06 A2946 RMK AO2
K08D 180415Z AUTO 15005KT 10SM SCT095 M06/M06 A2947 RMK AO2
K08D 180355Z AUTO 13006KT 10SM BKN100 M07/M07 A2947 RMK AO2
K08D 180335Z AUTO 12005KT 10SM SCT100 M06/M06 A2949 RMK AO2
K08D 180315Z AUTO 12005KT 10SM BKN100 M05/M05 A2951 RMK AO2
K08D 180255Z AUTO 11003KT 10SM CLR M05/M05 A2953 RMK AO2
K08D 180235Z AUTO 13004KT 10SM CLR M05/M05 A2953 RMK AO2
K08D 180215Z AUTO 14004KT 10SM CLR M05/M05 A2954 RMK AO2
K08D 180155Z AUTO 16005KT 10SM CLR M06/M05 A2954 RMK AO2
K08D 180135Z AUTO 16005KT 10SM CLR M05/M05 A2956 RMK AO2
K08D 180115Z AUTO 15004KT 10SM CLR M05/M05 A2957 RMK AO2
K08D 180055Z AUTO 14005KT 10SM CLR M05/M05 A2957 RMK AO2
K08D 180035Z AUTO 00000KT 10SM FEW100 M06/M06 A2958 RMK AO2
K08D 180015Z AUTO 15005KT 10SM BKN100 M05/M05 A2959 RMK AO2
K08D 172355Z AUTO 14006KT 10SM OVC110 M04/M04 A2959 RMK AO2
K08D 172335Z AUTO 14005KT 10SM BKN110 M04/M04 A2961 RMK AO2
K08D 172315Z AUTO 15006KT 10SM SCT110 M03/M03 A2962 RMK AO2
K08D 172255Z AUTO 15006KT 10SM OVC110 M02/M02 A2962 RMK AO2
K08D 172235Z AUTO 15007KT 10SM OVC110 M02/M02 A2963 RMK AO2
K08D 172215Z AUTO 14008KT 10SM OVC110 M02/M02 A2963 RMK AO2
K08D 172155Z AUTO 10006KT 10SM BKN110 M02/M02 A2963 RMK AO2
K08D 172135Z AUTO 07008KT 10SM FEW090 BKN110 M01/M01 A2964 RMK AO2
K08D 172115Z AUTO 00000KT 10SM FEW085 SCT120 M02/M01 A2964 RMK AO2
K08D 172055Z AUTO 00000KT 10SM FEW110 M01/M01 A2964 RMK AO2
K08D 172035Z AUTO 00000KT 10SM SCT110 M01/M01 A2964 RMK AO2
K08D 172015Z AUTO 00000KT 10SM CLR 00/M02 A2965 RMK AO2
K08D 171955Z AUTO 21005KT 10SM CLR M02/M02 A2966 RMK AO2
K08D 171935Z AUTO 21006KT 10SM CLR M02/M02 A2966 RMK AO2
K08D 171915Z AUTO 22004KT 10SM CLR M02/M02 A2968 RMK AO2
K08D 171855Z AUTO 19003KT 10SM CLR M03/M03 A2968 RMK AO2
K08D 171835Z AUTO 15004KT 10SM CLR M03/M03 A2969 RMK AO2
K08D 171815Z AUTO 12005KT 10SM CLR M03/M03 A2969 RMK AO2
K08D 171755Z AUTO 10005KT 10SM CLR M03/M03 A2971 RMK AO2
K08D 171735Z AUTO 08005KT 10SM CLR M04/M04 A2971 RMK AO2
K08D 171715Z AUTO 12004KT 10SM CLR M04/M04 A2971 RMK AO2
K08D 171655Z AUTO 00000KT 10SM CLR M05/M05 A2972 RMK AO2
K08D 171635Z AUTO 00000KT 10SM CLR M05/M05 A2971 RMK AO2
K08D 171615Z AUTO VRB04KT 10SM CLR M05/M05 A2970 RMK AO2
K08D 171555Z AUTO 13007KT 10SM FEW070 M05/M05 A2969 RMK AO2
K08D 171535Z AUTO 10006KT 10SM BKN070 M04/M04 A2969 RMK AO2
K08D 171515Z AUTO 10004KT 10SM OVC070 M04/M04 A2970 RMK AO2
K08D 171455Z AUTO 07005KT 10SM OVC070 M04/M03 A2970 RMK AO2
K08D 171435Z AUTO 05009KT 10SM OVC070 M04/M04 A2969 RMK AO2
K08D 171415Z AUTO 00000KT 10SM OVC075 M04/M04 A2969 RMK AO2
K08D 171355Z AUTO 00000KT 10SM BKN075 BKN085 M04/M04 A2969 RMK AO2
K08D 171335Z AUTO 17004KT 10SM OVC085 M02/M02 A2970 RMK AO2
K08D 171315Z AUTO 15003KT 10SM FEW065 OVC080 M02/M02 A2971 RMK AO2
K08D 171255Z AUTO 15003KT 10SM BKN065 OVC080 M02/M02 A2971 RMK AO2
K08D 171235Z AUTO 16003KT 10SM OVC065 M02/M02 A2971 RMK AO2
K08D 171215Z AUTO 00000KT 10SM OVC065 M02/M02 A2970 RMK AO2
K08D 171155Z AUTO 00000KT 10SM FEW031 FEW036 OVC065 M02/M02 A2971 RMK AO2
K08D 171135Z AUTO 16003KT 10SM FEW039 OVC065 M02/M02 A2971 RMK AO2
K08D 171115Z AUTO 17003KT 10SM -UP FEW026 BKN036 OVC070 M03/M02 A2972 RMK AO2
K08D 171055Z AUTO 12003KT 10SM SCT028 BKN033 OVC075 M03/M03 A2972 RMK AO2
K08D 171035Z AUTO 00000KT 10SM SCT032 BKN060 OVC075 M03/M03 A2973 RMK AO2
K08D 171015Z AUTO 00000KT 10SM BKN060 OVC070 M03/M03 A2973 RMK AO2
K08D 170955Z AUTO 00000KT 10SM OVC065 M03/M03 A2974 RMK AO2
K08D 170935Z AUTO 19003KT 10SM SCT060 OVC075 M03/M03 A2975 RMK AO2
K08D 170915Z AUTO 19004KT 10SM OVC075 M04/M03 A2975 RMK AO2
K08D 170855Z AUTO 00000KT 10SM FEW060 BKN075 OVC085 M03/M03 A2976 RMK AO2
K08D 170835Z AUTO 22004KT 10SM SCT060 BKN070 OVC075 M03/M03 A2976 RMK AO2
K08D 170815Z AUTO 00000KT 10SM BKN065 OVC075 M04/M03 A2977 RMK AO2
K08D 170755Z AUTO 23006KT 10SM BKN075 OVC100 M03/M03 A2978 RMK AO2
K08D 170735Z AUTO 00000KT 10SM SCT080 OVC100 M04/M04 A2979 RMK AO2
K08D 170715Z AUTO 23005KT 10SM FEW065 OVC075 M04/M04 A2980 RMK AO2
K08D 170655Z AUTO 26004KT 10SM SCT065 OVC075 M04/M03 A2981 RMK AO2
K08D 170635Z AUTO 23006KT 10SM BKN065 BKN080 OVC110 M04/M04 A2982 RMK AO2
K08D 170615Z AUTO 25006KT 10SM FEW065 SCT075 BKN110 M05/M04 A2982 RMK AO2
K08D 170555Z AUTO 26006KT 10SM SCT100 BKN120 M04/M04 A2983 RMK AO2
K08D 170535Z AUTO 22007KT 10SM BKN110 M05/M04 A2984 RMK AO2
K08D 170515Z AUTO 28010KT 10SM BKN110 M04/M04 A2984 RMK AO2
K08D 170455Z AUTO 28009KT 10SM FEW120 M05/M05 A2984 RMK AO2
K08D 170435Z AUTO 29010KT 10SM CLR M05/M05 A2984 RMK AO2
K08D 170415Z AUTO 29009KT 10SM CLR M05/M05 A2985 RMK AO2
K08D 170355Z AUTO 27009KT 10SM CLR M06/M06 A2987 RMK AO2
K08D 170315Z AUTO 28009KT 10SM CLR M06/M06 A2987 RMK AO2
K08D 170255Z AUTO 27011KT 10SM CLR M05/M05 A2989 RMK AO2
K08D 170235Z AUTO 28010KT 10SM CLR M05/M05 A2989 RMK AO2
K08D 170215Z AUTO 28011KT 10SM CLR M05/M05 A2990 RMK AO2
K08D 170155Z AUTO 28012KT 10SM CLR M05/M05 A2990 RMK AO2
K08D 170135Z AUTO 28012KT 10SM CLR M05/M05 A2989 RMK AO2
K08D 170115Z AUTO 28014KT 10SM CLR M04/M04 A2989 RMK AO2
K08D 170055Z AUTO 27013KT 10SM CLR M04/M04 A2990 RMK AO2
K08D 170035Z AUTO 27012KT 10SM CLR M04/M04 A2990 RMK AO2
K08D 170015Z AUTO 28013KT 10SM CLR M04/M03 A2990 RMK AO2
K08D 162355Z AUTO 28013KT 10SM CLR M03/M03 A2991 RMK AO2
K08D 162335Z AUTO 28013KT 10SM CLR M03/M03 A2991 RMK AO2
K08D 162315Z AUTO 27013KT 1/4SM FZFG VV002 M03/M03 A2992 RMK AO2
K08D 162255Z AUTO 27011KT 1/2SM BR VV005 M02/M03 A2992 RMK AO2
K08D 162235Z AUTO 27012KT 10SM CLR M02/M02 A2993 RMK AO2